sensor_id;sensor_type;location;lat;lon;timestamp;temperature;humidity
52879;DHT22;38747;53.140;6.498;2024-03-22T00:00:38;9.30;99.90
52879;DHT22;38747;53.140;6.498;2024-03-22T00:03:04;9.30;99.90
52879;DHT22;38747;53.140;6.498;2024-03-22T00:05:30;9.30;99.90
52879;DHT22;38747;53.140;6.498;2024-03-22T00:07:55;9.30;99.90
52879;DHT22;38747;53.140;6.498;2024-03-22T00:10:21;9.30;99.90
52879;DHT22;38747;53.140;6.498;2024-03-22T00:12:46;9.30;99.90
52879;DHT22;38747;53.140;6.498;2024-03-22T00:15:14;9.30;99.90
52879;DHT22;38747;53.140;6.498;2024-03-22T00:17:39;9.30;99.90
52879;DHT22;38747;53.140;6.498;2024-03-22T00:20:06;9.30;99.90
52879;DHT22;38747;53.140;6.498;2024-03-22T00:22:33;9.40;99.90
52879;DHT22;38747;53.140;6.498;2024-03-22T00:24:58;9.40;99.90
52879;DHT22;38747;53.140;6.498;2024-03-22T00:27:24;9.30;99.90
52879;DHT22;38747;53.140;6.498;2024-03-22T00:29:49;9.40;99.90
52879;DHT22;38747;53.140;6.498;2024-03-22T00:32:15;9.40;99.90
52879;DHT22;38747;53.140;6.498;2024-03-22T00:34:41;9.40;99.90
52879;DHT22;38747;53.140;6.498;2024-03-22T00:37:09;9.40;99.90
52879;DHT22;38747;53.140;6.498;2024-03-22T00:39:35;9.30;99.90
52879;DHT22;38747;53.140;6.498;2024-03-22T00:42:01;9.40;99.90
52879;DHT22;38747;53.140;6.498;2024-03-22T00:44:27;9.40;99.90
52879;DHT22;38747;53.140;6.498;2024-03-22T00:46:52;9.40;99.90
52879;DHT22;38747;53.140;6.498;2024-03-22T00:49:18;9.40;99.90
52879;DHT22;38747;53.140;6.498;2024-03-22T00:51:43;9.40;99.90
52879;DHT22;38747;53.140;6.498;2024-03-22T00:54:10;9.40;99.90
52879;DHT22;38747;53.140;6.498;2024-03-22T00:56:36;9.40;99.90
52879;DHT22;38747;53.140;6.498;2024-03-22T00:59:01;9.40;99.90
52879;DHT22;38747;53.140;6.498;2024-03-22T01:01:27;9.40;99.90
52879;DHT22;38747;53.140;6.498;2024-03-22T01:03:53;9.40;99.90
52879;DHT22;38747;53.140;6.498;2024-03-22T01:06:18;9.40;99.90
52879;DHT22;38747;53.140;6.498;2024-03-22T01:08:49;9.40;99.90
52879;DHT22;38747;53.140;6.498;2024-03-22T01:11:15;9.40;99.90
52879;DHT22;38747;53.140;6.498;2024-03-22T01:13:41;9.40;99.90
52879;DHT22;38747;53.140;6.498;2024-03-22T01:16:06;9.40;99.90
52879;DHT22;38747;53.140;6.498;2024-03-22T01:18:35;9.40;99.90
52879;DHT22;38747;53.140;6.498;2024-03-22T01:21:01;9.40;99.90
52879;DHT22;38747;53.140;6.498;2024-03-22T01:23:27;9.40;99.90
52879;DHT22;38747;53.140;6.498;2024-03-22T01:25:53;9.40;99.90
52879;DHT22;38747;53.140;6.498;2024-03-22T01:28:19;9.40;99.90
52879;DHT22;38747;53.140;6.498;2024-03-22T01:30:44;9.40;99.90
52879;DHT22;38747;53.140;6.498;2024-03-22T01:33:10;9.40;99.90
52879;DHT22;38747;53.140;6.498;2024-03-22T01:35:35;9.40;99.90
52879;DHT22;38747;53.140;6.498;2024-03-22T01:38:01;9.40;99.90
52879;DHT22;38747;53.140;6.498;2024-03-22T01:40:27;9.40;99.90
52879;DHT22;38747;53.140;6.498;2024-03-22T01:42:55;9.30;99.90
52879;DHT22;38747;53.140;6.498;2024-03-22T01:45:20;9.40;99.90
52879;DHT22;38747;53.140;6.498;2024-03-22T01:47:48;9.40;99.90
52879;DHT22;38747;53.140;6.498;2024-03-22T01:50:13;9.40;99.90
52879;DHT22;38747;53.140;6.498;2024-03-22T01:52:40;9.40;99.90
52879;DHT22;38747;53.140;6.498;2024-03-22T01:55:07;9.40;99.90
52879;DHT22;38747;53.140;6.498;2024-03-22T01:57:33;9.50;99.90
52879;DHT22;38747;53.140;6.498;2024-03-22T01:59:59;9.40;99.90
52879;DHT22;38747;53.140;6.498;2024-03-22T02:02:25;9.50;99.90
52879;DHT22;38747;53.140;6.498;2024-03-22T02:04:51;9.50;99.90
52879;DHT22;38747;53.140;6.498;2024-03-22T02:07:18;9.50;99.90
52879;DHT22;38747;53.140;6.498;2024-03-22T02:09:44;9.50;99.90
52879;DHT22;38747;53.140;6.498;2024-03-22T02:12:11;9.50;99.90
52879;DHT22;38747;53.140;6.498;2024-03-22T02:14:36;9.50;99.90
52879;DHT22;38747;53.140;6.498;2024-03-22T02:17:02;9.60;99.90
52879;DHT22;38747;53.140;6.498;2024-03-22T02:19:28;9.60;99.90
52879;DHT22;38747;53.140;6.498;2024-03-22T02:21:53;9.60;99.90
52879;DHT22;38747;53.140;6.498;2024-03-22T02:24:19;9.70;99.90
52879;DHT22;38747;53.140;6.498;2024-03-22T02:26:44;9.60;99.90
52879;DHT22;38747;53.140;6.498;2024-03-22T02:29:10;9.70;99.90
52879;DHT22;38747;53.140;6.498;2024-03-22T02:31:35;9.60;99.90
52879;DHT22;38747;53.140;6.498;2024-03-22T02:34:01;9.70;99.90
52879;DHT22;38747;53.140;6.498;2024-03-22T02:36:27;9.70;99.90
52879;DHT22;38747;53.140;6.498;2024-03-22T02:38:54;9.70;99.90
52879;DHT22;38747;53.140;6.498;2024-03-22T02:41:21;9.70;99.90
52879;DHT22;38747;53.140;6.498;2024-03-22T02:43:47;9.70;99.90
52879;DHT22;38747;53.140;6.498;2024-03-22T02:46:12;9.70;99.90
52879;DHT22;38747;53.140;6.498;2024-03-22T02:48:39;9.80;99.90
52879;DHT22;38747;53.140;6.498;2024-03-22T02:51:04;9.70;99.90
52879;DHT22;38747;53.140;6.498;2024-03-22T02:53:30;9.70;99.90
52879;DHT22;38747;53.140;6.498;2024-03-22T02:55:56;9.80;99.90
52879;DHT22;38747;53.140;6.498;2024-03-22T02:58:24;9.80;99.90
52879;DHT22;38747;53.140;6.498;2024-03-22T03:00:50;9.80;99.90
52879;DHT22;38747;53.140;6.498;2024-03-22T03:03:15;9.80;99.90
52879;DHT22;38747;53.140;6.498;2024-03-22T03:05:42;9.80;99.90
52879;DHT22;38747;53.140;6.498;2024-03-22T03:08:07;9.80;99.90
52879;DHT22;38747;53.140;6.498;2024-03-22T03:10:33;9.80;99.90
52879;DHT22;38747;53.140;6.498;2024-03-22T03:12:59;9.80;99.90
52879;DHT22;38747;53.140;6.498;2024-03-22T03:15:24;9.80;99.90
52879;DHT22;38747;53.140;6.498;2024-03-22T03:17:50;9.80;99.90
52879;DHT22;38747;53.140;6.498;2024-03-22T03:20:17;9.80;99.90
52879;DHT22;38747;53.140;6.498;2024-03-22T03:22:43;9.80;99.90
52879;DHT22;38747;53.140;6.498;2024-03-22T03:25:08;9.90;99.90
52879;DHT22;38747;53.140;6.498;2024-03-22T03:27:34;9.80;99.90
52879;DHT22;38747;53.140;6.498;2024-03-22T03:30:00;9.80;99.90
52879;DHT22;38747;53.140;6.498;2024-03-22T03:32:27;9.90;99.90
52879;DHT22;38747;53.140;6.498;2024-03-22T03:34:52;9.90;99.90
52879;DHT22;38747;53.140;6.498;2024-03-22T03:37:18;9.90;99.90
52879;DHT22;38747;53.140;6.498;2024-03-22T03:39:44;9.80;99.90
52879;DHT22;38747;53.140;6.498;2024-03-22T03:42:10;9.90;99.90
52879;DHT22;38747;53.140;6.498;2024-03-22T03:44:36;9.80;99.90
52879;DHT22;38747;53.140;6.498;2024-03-22T03:47:02;9.90;99.90
52879;DHT22;38747;53.140;6.498;2024-03-22T03:49:28;9.90;99.90
52879;DHT22;38747;53.140;6.498;2024-03-22T03:51:55;9.90;99.90
52879;DHT22;38747;53.140;6.498;2024-03-22T03:54:21;9.90;99.90
52879;DHT22;38747;53.140;6.498;2024-03-22T03:56:46;10.00;99.90
52879;DHT22;38747;53.140;6.498;2024-03-22T03:59:12;10.00;99.90
52879;DHT22;38747;53.140;6.498;2024-03-22T04:01:37;10.00;99.90
52879;DHT22;38747;53.140;6.498;2024-03-22T04:04:03;10.00;99.90
52879;DHT22;38747;53.140;6.498;2024-03-22T04:06:29;10.00;99.90
52879;DHT22;38747;53.140;6.498;2024-03-22T04:08:55;10.00;99.90
52879;DHT22;38747;53.140;6.498;2024-03-22T04:11:20;10.00;99.90
52879;DHT22;38747;53.140;6.498;2024-03-22T04:13:49;10.10;99.90
52879;DHT22;38747;53.140;6.498;2024-03-22T04:16:15;10.10;99.90
52879;DHT22;38747;53.140;6.498;2024-03-22T04:18:40;10.00;99.90
52879;DHT22;38747;53.140;6.498;2024-03-22T04:21:06;10.10;99.90
52879;DHT22;38747;53.140;6.498;2024-03-22T04:23:32;10.00;99.90
52879;DHT22;38747;53.140;6.498;2024-03-22T04:25:59;10.10;99.90
52879;DHT22;38747;53.140;6.498;2024-03-22T04:28:25;10.10;99.90
52879;DHT22;38747;53.140;6.498;2024-03-22T04:30:59;10.10;99.90
52879;DHT22;38747;53.140;6.498;2024-03-22T04:33:26;10.10;99.90
52879;DHT22;38747;53.140;6.498;2024-03-22T04:35:51;10.10;99.90
52879;DHT22;38747;53.140;6.498;2024-03-22T04:38:17;10.00;99.90
52879;DHT22;38747;53.140;6.498;2024-03-22T04:40:43;10.00;99.90
52879;DHT22;38747;53.140;6.498;2024-03-22T04:43:08;10.10;99.90
52879;DHT22;38747;53.140;6.498;2024-03-22T04:45:34;10.10;99.90
52879;DHT22;38747;53.140;6.498;2024-03-22T04:48:02;10.10;99.90
52879;DHT22;38747;53.140;6.498;2024-03-22T04:50:27;10.10;99.90
52879;DHT22;38747;53.140;6.498;2024-03-22T04:52:53;10.00;99.90
52879;DHT22;38747;53.140;6.498;2024-03-22T04:55:19;10.00;99.90
52879;DHT22;38747;53.140;6.498;2024-03-22T04:57:44;10.10;99.90
52879;DHT22;38747;53.140;6.498;2024-03-22T05:00:10;10.00;99.90
52879;DHT22;38747;53.140;6.498;2024-03-22T05:02:39;10.00;99.90
52879;DHT22;38747;53.140;6.498;2024-03-22T05:05:05;10.00;99.90
52879;DHT22;38747;53.140;6.498;2024-03-22T05:07:31;10.00;99.90
52879;DHT22;38747;53.140;6.498;2024-03-22T05:09:57;10.00;99.90
52879;DHT22;38747;53.140;6.498;2024-03-22T05:12:22;10.00;99.90
52879;DHT22;38747;53.140;6.498;2024-03-22T05:14:48;10.00;99.90
52879;DHT22;38747;53.140;6.498;2024-03-22T05:17:13;10.10;99.90
52879;DHT22;38747;53.140;6.498;2024-03-22T05:19:42;10.00;99.90
52879;DHT22;38747;53.140;6.498;2024-03-22T05:22:08;10.10;99.90
52879;DHT22;38747;53.140;6.498;2024-03-22T05:24:33;10.00;99.90
52879;DHT22;38747;53.140;6.498;2024-03-22T05:26:59;10.00;99.90
52879;DHT22;38747;53.140;6.498;2024-03-22T05:29:25;10.00;99.90
52879;DHT22;38747;53.140;6.498;2024-03-22T05:31:50;10.00;99.90
52879;DHT22;38747;53.140;6.498;2024-03-22T05:34:17;10.00;99.90
52879;DHT22;38747;53.140;6.498;2024-03-22T05:36:44;10.00;99.90
52879;DHT22;38747;53.140;6.498;2024-03-22T05:39:09;10.00;99.90
52879;DHT22;38747;53.140;6.498;2024-03-22T05:41:39;10.00;99.90
52879;DHT22;38747;53.140;6.498;2024-03-22T05:44:05;9.90;99.90
52879;DHT22;38747;53.140;6.498;2024-03-22T05:46:31;10.00;99.90
52879;DHT22;38747;53.140;6.498;2024-03-22T05:48:57;9.90;99.90
52879;DHT22;38747;53.140;6.498;2024-03-22T05:51:24;9.80;99.90
52879;DHT22;38747;53.140;6.498;2024-03-22T05:53:50;9.80;99.90
52879;DHT22;38747;53.140;6.498;2024-03-22T05:56:15;9.80;99.90
52879;DHT22;38747;53.140;6.498;2024-03-22T05:58:41;9.80;99.90
52879;DHT22;38747;53.140;6.498;2024-03-22T06:01:06;9.80;99.90
52879;DHT22;38747;53.140;6.498;2024-03-22T06:03:32;9.70;99.90
52879;DHT22;38747;53.140;6.498;2024-03-22T06:06:01;9.70;99.90
52879;DHT22;38747;53.140;6.498;2024-03-22T06:08:27;9.70;99.90
52879;DHT22;38747;53.140;6.498;2024-03-22T06:10:54;9.70;99.90
52879;DHT22;38747;53.140;6.498;2024-03-22T06:13:19;9.70;99.90
52879;DHT22;38747;53.140;6.498;2024-03-22T06:15:48;9.60;99.90
52879;DHT22;38747;53.140;6.498;2024-03-22T06:18:14;9.70;99.90
52879;DHT22;38747;53.140;6.498;2024-03-22T06:20:39;9.70;99.90
52879;DHT22;38747;53.140;6.498;2024-03-22T06:23:05;9.70;99.90
52879;DHT22;38747;53.140;6.498;2024-03-22T06:25:31;9.60;99.90
52879;DHT22;38747;53.140;6.498;2024-03-22T06:27:57;9.70;99.90
52879;DHT22;38747;53.140;6.498;2024-03-22T06:30:22;9.60;99.90
52879;DHT22;38747;53.140;6.498;2024-03-22T06:32:48;9.70;99.90
52879;DHT22;38747;53.140;6.498;2024-03-22T06:35:14;9.60;99.90
52879;DHT22;38747;53.140;6.498;2024-03-22T06:37:40;9.70;99.90
52879;DHT22;38747;53.140;6.498;2024-03-22T06:40:07;9.70;99.90
52879;DHT22;38747;53.140;6.498;2024-03-22T06:42:32;9.70;99.90
52879;DHT22;38747;53.140;6.498;2024-03-22T06:44:58;9.60;99.90
52879;DHT22;38747;53.140;6.498;2024-03-22T06:47:24;9.70;99.90
52879;DHT22;38747;53.140;6.498;2024-03-22T06:49:49;9.70;99.90
52879;DHT22;38747;53.140;6.498;2024-03-22T06:52:18;9.70;99.90
52879;DHT22;38747;53.140;6.498;2024-03-22T06:54:44;9.60;99.90
52879;DHT22;38747;53.140;6.498;2024-03-22T06:57:10;9.70;99.90
52879;DHT22;38747;53.140;6.498;2024-03-22T06:59:36;9.70;99.90
52879;DHT22;38747;53.140;6.498;2024-03-22T07:02:01;9.70;99.90
52879;DHT22;38747;53.140;6.498;2024-03-22T07:04:27;9.70;99.90
52879;DHT22;38747;53.140;6.498;2024-03-22T07:06:52;9.60;99.90
52879;DHT22;38747;53.140;6.498;2024-03-22T07:09:18;9.70;99.90
52879;DHT22;38747;53.140;6.498;2024-03-22T07:11:44;9.80;99.90
52879;DHT22;38747;53.140;6.498;2024-03-22T07:14:09;9.70;99.90
52879;DHT22;38747;53.140;6.498;2024-03-22T07:16:35;9.70;99.90
52879;DHT22;38747;53.140;6.498;2024-03-22T07:19:02;9.80;99.90
52879;DHT22;38747;53.140;6.498;2024-03-22T07:21:29;9.70;99.90
52879;DHT22;38747;53.140;6.498;2024-03-22T07:23:57;9.70;99.90
52879;DHT22;38747;53.140;6.498;2024-03-22T07:26:23;9.70;99.90
52879;DHT22;38747;53.140;6.498;2024-03-22T07:28:49;9.70;99.90
52879;DHT22;38747;53.140;6.498;2024-03-22T07:31:14;9.70;99.90
52879;DHT22;38747;53.140;6.498;2024-03-22T07:33:40;9.70;99.90
52879;DHT22;38747;53.140;6.498;2024-03-22T07:36:06;9.70;99.90
52879;DHT22;38747;53.140;6.498;2024-03-22T07:38:32;9.70;99.90
52879;DHT22;38747;53.140;6.498;2024-03-22T07:40:58;9.70;99.90
52879;DHT22;38747;53.140;6.498;2024-03-22T07:43:23;9.70;99.90
52879;DHT22;38747;53.140;6.498;2024-03-22T07:45:49;9.70;99.90
52879;DHT22;38747;53.140;6.498;2024-03-22T07:48:15;9.70;99.90
52879;DHT22;38747;53.140;6.498;2024-03-22T07:50:41;9.70;99.90
52879;DHT22;38747;53.140;6.498;2024-03-22T07:53:06;9.70;99.90
52879;DHT22;38747;53.140;6.498;2024-03-22T07:55:32;9.70;99.90
52879;DHT22;38747;53.140;6.498;2024-03-22T07:57:58;9.70;99.90
52879;DHT22;38747;53.140;6.498;2024-03-22T08:00:25;9.70;99.90
52879;DHT22;38747;53.140;6.498;2024-03-22T08:02:51;9.70;99.90
52879;DHT22;38747;53.140;6.498;2024-03-22T08:05:17;9.70;99.90
52879;DHT22;38747;53.140;6.498;2024-03-22T08:07:42;9.80;99.90
52879;DHT22;38747;53.140;6.498;2024-03-22T08:10:11;9.80;99.90
52879;DHT22;38747;53.140;6.498;2024-03-22T08:12:36;9.80;99.90
52879;DHT22;38747;53.140;6.498;2024-03-22T08:15:02;9.70;99.90
52879;DHT22;38747;53.140;6.498;2024-03-22T08:17:28;9.80;99.90
52879;DHT22;38747;53.140;6.498;2024-03-22T08:19:54;9.70;99.90
52879;DHT22;38747;53.140;6.498;2024-03-22T08:22:19;9.80;99.90
52879;DHT22;38747;53.140;6.498;2024-03-22T08:24:45;9.80;99.90
52879;DHT22;38747;53.140;6.498;2024-03-22T08:27:11;9.80;99.90
52879;DHT22;38747;53.140;6.498;2024-03-22T08:29:37;9.90;99.90
52879;DHT22;38747;53.140;6.498;2024-03-22T08:32:03;9.90;99.90
52879;DHT22;38747;53.140;6.498;2024-03-22T08:34:30;9.90;99.90
52879;DHT22;38747;53.140;6.498;2024-03-22T08:36:58;9.90;99.90
52879;DHT22;38747;53.140;6.498;2024-03-22T08:39:23;9.90;99.90
52879;DHT22;38747;53.140;6.498;2024-03-22T08:41:50;9.90;99.90
52879;DHT22;38747;53.140;6.498;2024-03-22T08:44:16;9.90;99.90
52879;DHT22;38747;53.140;6.498;2024-03-22T08:46:43;9.90;99.90
52879;DHT22;38747;53.140;6.498;2024-03-22T08:49:09;9.90;99.90
52879;DHT22;38747;53.140;6.498;2024-03-22T08:51:34;10.00;99.90
52879;DHT22;38747;53.140;6.498;2024-03-22T08:54:00;10.00;99.90
52879;DHT22;38747;53.140;6.498;2024-03-22T08:56:29;10.00;99.90
52879;DHT22;38747;53.140;6.498;2024-03-22T08:58:55;10.00;99.90
52879;DHT22;38747;53.140;6.498;2024-03-22T09:01:21;10.00;99.90
52879;DHT22;38747;53.140;6.498;2024-03-22T09:03:47;10.00;99.90
52879;DHT22;38747;53.140;6.498;2024-03-22T09:06:14;9.90;99.90
52879;DHT22;38747;53.140;6.498;2024-03-22T09:08:40;10.00;99.90
52879;DHT22;38747;53.140;6.498;2024-03-22T09:11:06;10.00;99.90
52879;DHT22;38747;53.140;6.498;2024-03-22T09:13:31;10.00;99.90
52879;DHT22;38747;53.140;6.498;2024-03-22T09:16:01;10.00;99.90
52879;DHT22;38747;53.140;6.498;2024-03-22T09:18:27;10.00;99.90
52879;DHT22;38747;53.140;6.498;2024-03-22T09:20:53;10.00;99.90
52879;DHT22;38747;53.140;6.498;2024-03-22T09:23:19;10.00;99.90
52879;DHT22;38747;53.140;6.498;2024-03-22T09:25:46;10.00;99.90
52879;DHT22;38747;53.140;6.498;2024-03-22T09:28:12;10.00;99.90
52879;DHT22;38747;53.140;6.498;2024-03-22T09:30:39;10.00;99.90
52879;DHT22;38747;53.140;6.498;2024-03-22T09:33:05;10.00;99.90
52879;DHT22;38747;53.140;6.498;2024-03-22T09:35:33;10.00;99.90
52879;DHT22;38747;53.140;6.498;2024-03-22T09:37:59;10.00;99.90
52879;DHT22;38747;53.140;6.498;2024-03-22T09:40:25;10.00;99.90
52879;DHT22;38747;53.140;6.498;2024-03-22T09:42:53;9.90;99.90
52879;DHT22;38747;53.140;6.498;2024-03-22T09:45:19;10.00;99.90
52879;DHT22;38747;53.140;6.498;2024-03-22T09:47:48;10.00;99.90
52879;DHT22;38747;53.140;6.498;2024-03-22T09:50:14;10.00;99.90
52879;DHT22;38747;53.140;6.498;2024-03-22T09:52:41;10.00;99.90
52879;DHT22;38747;53.140;6.498;2024-03-22T09:55:08;10.00;99.90
52879;DHT22;38747;53.140;6.498;2024-03-22T09:57:38;10.00;99.90
52879;DHT22;38747;53.140;6.498;2024-03-22T10:00:07;10.10;99.90
52879;DHT22;38747;53.140;6.498;2024-03-22T10:02:34;10.00;99.90
52879;DHT22;38747;53.140;6.498;2024-03-22T10:05:00;10.10;99.90
52879;DHT22;38747;53.140;6.498;2024-03-22T10:07:28;10.10;99.90
52879;DHT22;38747;53.140;6.498;2024-03-22T10:09:57;10.10;99.90
52879;DHT22;38747;53.140;6.498;2024-03-22T10:12:22;10.10;99.90
52879;DHT22;38747;53.140;6.498;2024-03-22T10:14:48;10.10;99.90
52879;DHT22;38747;53.140;6.498;2024-03-22T10:17:13;10.20;99.90
52879;DHT22;38747;53.140;6.498;2024-03-22T10:19:39;10.20;99.90
52879;DHT22;38747;53.140;6.498;2024-03-22T10:22:06;10.20;99.90
52879;DHT22;38747;53.140;6.498;2024-03-22T10:24:32;10.20;99.90
52879;DHT22;38747;53.140;6.498;2024-03-22T10:26:58;10.20;99.90
52879;DHT22;38747;53.140;6.498;2024-03-22T10:29:24;10.30;99.90
52879;DHT22;38747;53.140;6.498;2024-03-22T10:31:52;10.30;99.90
52879;DHT22;38747;53.140;6.498;2024-03-22T10:34:18;10.30;99.90
52879;DHT22;38747;53.140;6.498;2024-03-22T10:36:45;10.40;99.90
52879;DHT22;38747;53.140;6.498;2024-03-22T10:39:13;10.40;99.90
52879;DHT22;38747;53.140;6.498;2024-03-22T10:41:40;10.40;99.90
52879;DHT22;38747;53.140;6.498;2024-03-22T10:44:06;10.40;99.90
52879;DHT22;38747;53.140;6.498;2024-03-22T10:46:34;10.40;99.90
52879;DHT22;38747;53.140;6.498;2024-03-22T10:49:02;10.40;99.90
52879;DHT22;38747;53.140;6.498;2024-03-22T10:51:30;10.40;99.90
52879;DHT22;38747;53.140;6.498;2024-03-22T10:53:57;10.50;99.90
52879;DHT22;38747;53.140;6.498;2024-03-22T10:56:24;10.50;99.90
52879;DHT22;38747;53.140;6.498;2024-03-22T10:58:50;10.50;99.90
52879;DHT22;38747;53.140;6.498;2024-03-22T11:01:25;10.60;99.90
52879;DHT22;38747;53.140;6.498;2024-03-22T11:04:02;10.70;99.90
52879;DHT22;38747;53.140;6.498;2024-03-22T11:06:28;10.70;99.90
52879;DHT22;38747;53.140;6.498;2024-03-22T11:08:59;10.70;99.90
52879;DHT22;38747;53.140;6.498;2024-03-22T11:11:29;10.70;99.90
52879;DHT22;38747;53.140;6.498;2024-03-22T11:13:56;10.60;99.90
52879;DHT22;38747;53.140;6.498;2024-03-22T11:16:22;10.70;99.90
52879;DHT22;38747;53.140;6.498;2024-03-22T11:18:48;10.60;99.90
52879;DHT22;38747;53.140;6.498;2024-03-22T11:21:15;10.70;99.90
52879;DHT22;38747;53.140;6.498;2024-03-22T11:23:40;10.70;99.90
52879;DHT22;38747;53.140;6.498;2024-03-22T11:26:06;10.70;99.90
52879;DHT22;38747;53.140;6.498;2024-03-22T11:28:33;10.80;99.90
52879;DHT22;38747;53.140;6.498;2024-03-22T11:30:59;10.80;99.90
52879;DHT22;38747;53.140;6.498;2024-03-22T11:33:25;10.80;99.90
52879;DHT22;38747;53.140;6.498;2024-03-22T11:35:52;10.90;99.90
52879;DHT22;38747;53.140;6.498;2024-03-22T11:38:18;10.90;99.90
52879;DHT22;38747;53.140;6.498;2024-03-22T11:40:45;10.90;99.90
52879;DHT22;38747;53.140;6.498;2024-03-22T11:43:13;10.90;99.90
52879;DHT22;38747;53.140;6.498;2024-03-22T11:45:41;10.90;99.90
52879;DHT22;38747;53.140;6.498;2024-03-22T11:48:07;10.90;99.90
52879;DHT22;38747;53.140;6.498;2024-03-22T11:50:32;10.80;99.90
52879;DHT22;38747;53.140;6.498;2024-03-22T11:52:58;10.90;99.90
52879;DHT22;38747;53.140;6.498;2024-03-22T11:55:27;10.90;99.90
52879;DHT22;38747;53.140;6.498;2024-03-22T11:57:53;10.90;99.90
52879;DHT22;38747;53.140;6.498;2024-03-22T12:00:19;10.90;99.90
52879;DHT22;38747;53.140;6.498;2024-03-22T12:02:45;10.90;99.90
52879;DHT22;38747;53.140;6.498;2024-03-22T12:05:11;10.90;99.90
52879;DHT22;38747;53.140;6.498;2024-03-22T12:07:37;10.70;99.90
52879;DHT22;38747;53.140;6.498;2024-03-22T12:10:03;10.70;99.90
52879;DHT22;38747;53.140;6.498;2024-03-22T12:12:29;10.70;99.90
52879;DHT22;38747;53.140;6.498;2024-03-22T12:14:55;10.70;99.90
52879;DHT22;38747;53.140;6.498;2024-03-22T12:17:21;10.70;99.90
52879;DHT22;38747;53.140;6.498;2024-03-22T12:19:46;10.80;99.90
52879;DHT22;38747;53.140;6.498;2024-03-22T12:22:13;10.80;99.90
52879;DHT22;38747;53.140;6.498;2024-03-22T12:24:38;10.90;99.90
52879;DHT22;38747;53.140;6.498;2024-03-22T12:27:04;11.00;99.90
52879;DHT22;38747;53.140;6.498;2024-03-22T12:29:32;11.00;99.90
52879;DHT22;38747;53.140;6.498;2024-03-22T12:31:59;11.10;99.90
52879;DHT22;38747;53.140;6.498;2024-03-22T12:34:27;11.20;99.90
52879;DHT22;38747;53.140;6.498;2024-03-22T12:36:54;11.20;99.90
52879;DHT22;38747;53.140;6.498;2024-03-22T12:39:20;11.30;99.90
52879;DHT22;38747;53.140;6.498;2024-03-22T12:41:46;11.40;99.90
52879;DHT22;38747;53.140;6.498;2024-03-22T12:44:12;11.50;99.90
52879;DHT22;38747;53.140;6.498;2024-03-22T12:46:37;11.40;99.90
52879;DHT22;38747;53.140;6.498;2024-03-22T12:49:03;11.30;99.90
52879;DHT22;38747;53.140;6.498;2024-03-22T12:51:28;11.30;99.90
52879;DHT22;38747;53.140;6.498;2024-03-22T12:53:54;11.30;99.90
52879;DHT22;38747;53.140;6.498;2024-03-22T12:56:20;11.10;99.90
52879;DHT22;38747;53.140;6.498;2024-03-22T12:58:47;11.10;99.90
52879;DHT22;38747;53.140;6.498;2024-03-22T13:01:13;11.00;99.90
52879;DHT22;38747;53.140;6.498;2024-03-22T13:03:38;10.90;99.90
52879;DHT22;38747;53.140;6.498;2024-03-22T13:06:04;10.90;99.90
52879;DHT22;38747;53.140;6.498;2024-03-22T13:08:31;10.80;99.90
52879;DHT22;38747;53.140;6.498;2024-03-22T13:10:57;10.80;99.90
52879;DHT22;38747;53.140;6.498;2024-03-22T13:13:23;10.80;99.90
52879;DHT22;38747;53.140;6.498;2024-03-22T13:15:48;10.90;99.90
52879;DHT22;38747;53.140;6.498;2024-03-22T13:18:15;10.80;99.90
52879;DHT22;38747;53.140;6.498;2024-03-22T13:20:41;10.90;99.90
52879;DHT22;38747;53.140;6.498;2024-03-22T13:23:06;10.90;99.90
52879;DHT22;38747;53.140;6.498;2024-03-22T13:25:35;10.90;99.90
52879;DHT22;38747;53.140;6.498;2024-03-22T13:28:04;10.90;99.90
52879;DHT22;38747;53.140;6.498;2024-03-22T13:30:33;11.00;99.90
52879;DHT22;38747;53.140;6.498;2024-03-22T13:33:01;10.90;99.90
52879;DHT22;38747;53.140;6.498;2024-03-22T13:35:26;10.90;99.90
52879;DHT22;38747;53.140;6.498;2024-03-22T13:37:52;10.90;99.90
52879;DHT22;38747;53.140;6.498;2024-03-22T13:40:18;10.80;99.90
52879;DHT22;38747;53.140;6.498;2024-03-22T13:42:43;10.90;99.90
52879;DHT22;38747;53.140;6.498;2024-03-22T13:45:09;10.80;99.90
52879;DHT22;38747;53.140;6.498;2024-03-22T13:47:35;10.80;99.90
52879;DHT22;38747;53.140;6.498;2024-03-22T13:50:06;10.80;99.90
52879;DHT22;38747;53.140;6.498;2024-03-22T13:52:34;10.80;99.90
52879;DHT22;38747;53.140;6.498;2024-03-22T13:55:02;10.70;99.90
52879;DHT22;38747;53.140;6.498;2024-03-22T13:57:30;10.70;99.90
52879;DHT22;38747;53.140;6.498;2024-03-22T13:59:55;10.70;99.90
52879;DHT22;38747;53.140;6.498;2024-03-22T14:02:21;10.70;99.90
52879;DHT22;38747;53.140;6.498;2024-03-22T14:04:47;10.70;99.90
52879;DHT22;38747;53.140;6.498;2024-03-22T14:07:12;10.70;99.90
52879;DHT22;38747;53.140;6.498;2024-03-22T14:09:38;10.70;99.90
52879;DHT22;38747;53.140;6.498;2024-03-22T14:12:06;10.70;99.90
52879;DHT22;38747;53.140;6.498;2024-03-22T14:14:32;10.70;99.90
52879;DHT22;38747;53.140;6.498;2024-03-22T14:16:57;10.80;99.90
52879;DHT22;38747;53.140;6.498;2024-03-22T14:19:23;10.90;99.90
52879;DHT22;38747;53.140;6.498;2024-03-22T14:21:51;10.90;99.90
52879;DHT22;38747;53.140;6.498;2024-03-22T14:24:16;11.00;99.90
52879;DHT22;38747;53.140;6.498;2024-03-22T14:26:42;11.00;99.90
52879;DHT22;38747;53.140;6.498;2024-03-22T14:29:09;11.10;99.90
52879;DHT22;38747;53.140;6.498;2024-03-22T14:31:37;11.00;99.90
52879;DHT22;38747;53.140;6.498;2024-03-22T14:34:03;10.90;99.90
52879;DHT22;38747;53.140;6.498;2024-03-22T14:36:28;10.90;99.90
52879;DHT22;38747;53.140;6.498;2024-03-22T14:38:54;10.80;99.90
52879;DHT22;38747;53.140;6.498;2024-03-22T14:41:20;10.70;99.90
52879;DHT22;38747;53.140;6.498;2024-03-22T14:43:45;10.60;99.90
52879;DHT22;38747;53.140;6.498;2024-03-22T14:46:11;10.50;99.90
52879;DHT22;38747;53.140;6.498;2024-03-22T14:48:37;10.50;99.90
52879;DHT22;38747;53.140;6.498;2024-03-22T14:51:02;10.40;99.90
52879;DHT22;38747;53.140;6.498;2024-03-22T14:53:28;10.40;99.90
52879;DHT22;38747;53.140;6.498;2024-03-22T14:55:54;10.30;99.90
52879;DHT22;38747;53.140;6.498;2024-03-22T14:58:23;10.30;99.90
52879;DHT22;38747;53.140;6.498;2024-03-22T15:00:56;10.20;99.90
52879;DHT22;38747;53.140;6.498;2024-03-22T15:03:23;10.20;99.90
52879;DHT22;38747;53.140;6.498;2024-03-22T15:05:53;10.10;99.90
52879;DHT22;38747;53.140;6.498;2024-03-22T15:08:20;10.10;99.90
52879;DHT22;38747;53.140;6.498;2024-03-22T15:10:46;10.10;99.90
52879;DHT22;38747;53.140;6.498;2024-03-22T15:13:12;10.10;99.90
52879;DHT22;38747;53.140;6.498;2024-03-22T15:15:39;10.10;99.90
52879;DHT22;38747;53.140;6.498;2024-03-22T15:18:06;10.20;99.90
52879;DHT22;38747;53.140;6.498;2024-03-22T15:20:32;10.20;99.90
52879;DHT22;38747;53.140;6.498;2024-03-22T15:22:58;10.20;99.90
52879;DHT22;38747;53.140;6.498;2024-03-22T15:25:24;10.20;99.90
52879;DHT22;38747;53.140;6.498;2024-03-22T15:27:49;10.10;99.90
52879;DHT22;38747;53.140;6.498;2024-03-22T15:30:15;10.10;99.90